Wakayoshi Maru No.5 — JL6545 — position and weather

sailwx.info

Track history (hours):
 
Tides and Currents Weather Stations Pressure Air Temp Water Temp Dewpoint Dewpoint Depression Visibility Wind Speed Wind Dir Waves Ship Positions

Wakayoshi Maru No.5

Last reported at 2017-Jul-21 06:42 UTC. Time now 2017-Jul-26 14:37 UTC.
Position N 34°02' E 134°59'.

Length 76 m; draft 4.7 m.

Type: Cargo ship. MMSI: 431500615.

Date/timePositionNaut miles runAvg speedWind from/ knotsBaromVisibWave heightAir tempDewpointWater temp
2017-Jul-21 06:42N 34°02' E 134°59'311.6
2017-Jul-21 06:29N 34°04' E 134°59'2511.7
2017-Jul-21 04:22N 34°27' E 135°10'512.8
2017-Jul-21 04:00N 34°30' E 135°14'612.4
2017-Jul-21 03:30N 34°34' E 135°20'5 9.1
2017-Jul-21 03:00N 34°35' E 135°25'1 0.4
2017-Jul-21 01:19N 34°35' E 135°26'0 0.0
2017-Jul-21 00:55N 34°35' E 135°26'0 0.0
2017-Jul-21 00:19N 34°35' E 135°26'0 0.0
2017-Jul-20 23:55N 34°35' E 135°26'0 0.0
2017-Jul-20 20:37N 34°35' E 135°26'0 0.1
2017-Jul-20 20:07N 34°35' E 135°26'0 2.1
2017-Jul-20 19:57N 34°35' E 135°25'0 0.0
2017-Jul-20 19:21N 34°35' E 135°25'0 0.0
2017-Jul-20 18:51N 34°35' E 135°25'0 0.0
2017-Jul-20 17:33N 34°35' E 135°25'0 0.1
2017-Jul-20 17:21N 34°35' E 135°25'0 0.0
2017-Jul-20 16:51N 34°35' E 135°25'0 0.0
2017-Jul-20 16:27N 34°35' E 135°25'0 0.1
2017-Jul-20 15:57N 34°35' E 135°25'0 0.0
2017-Jul-20 15:27N 34°35' E 135°25'0 0.1
2017-Jul-20 14:57N 34°35' E 135°25'8 8.1
2017-Jul-20 14:00N 34°32' E 135°17'612.5
2017-Jul-20 13:30N 34°27' E 135°12'1611.7
2017-Jul-20 12:10N 34°15' E 134°60'  
2017-Jul-17 08:03N 34°00' E 135°01'212.4
2017-Jul-17 07:52N 34°03' E 135°02'512.6
2017-Jul-17 07:30N 34°07' E 135°02'612.5
2017-Jul-17 07:00N 34°13' E 135°05'2 4.7
2017-Jul-17 06:30N 34°15' E 135°07'0 0.0
2017-Jul-17 05:55N 34°15' E 135°07'0 0.0
2017-Jul-17 05:28N 34°15' E 135°07'0 0.0
2017-Jul-17 04:58N 34°15' E 135°07'0 0.0
2017-Jul-17 04:28N 34°15' E 135°07'0 0.0
2017-Jul-17 03:58N 34°15' E 135°07'0 0.0
2017-Jul-17 03:28N 34°15' E 135°07'0 0.0
2017-Jul-17 02:58N 34°15' E 135°07'0 0.0
2017-Jul-17 02:30N 34°15' E 135°07'0 0.0
2017-Jul-17 02:00N 34°15' E 135°07'0 0.0
2017-Jul-17 01:30N 34°15' E 135°07'0 0.0
2017-Jul-17 01:00N 34°15' E 135°07'0 0.0
2017-Jul-17 00:30N 34°15' E 135°07'0 0.0
2017-Jul-17 00:00N 34°15' E 135°07'0 0.0
2017-Jul-16 23:30N 34°15' E 135°07'0 0.0
2017-Jul-16 23:00N 34°15' E 135°07'0 0.0
2017-Jul-16 22:30N 34°15' E 135°07'1 1.3
2017-Jul-16 22:00N 34°15' E 135°06'0 0.0
2017-Jul-16 21:30N 34°15' E 135°06'0 0.0
2017-Jul-16 21:00N 34°15' E 135°06'0 0.0
2017-Jul-16 20:30N 34°15' E 135°06'0 0.0
2017-Jul-16 20:00N 34°15' E 135°06'0 0.0
2017-Jul-16 19:30N 34°15' E 135°06'0 0.0
2017-Jul-16 19:00N 34°15' E 135°06'0 0.0
2017-Jul-16 18:27N 34°15' E 135°06'0 0.0
2017-Jul-16 17:57N 34°15' E 135°06'0 0.0
2017-Jul-16 17:12N 34°15' E 135°06'0 0.2
2017-Jul-16 16:57N 34°15' E 135°06'0 0.0
2017-Jul-16 16:30N 34°15' E 135°06'0 0.1
2017-Jul-16 15:57N 34°15' E 135°06'0 0.0
2017-Jul-16 15:27N 34°15' E 135°06'0 0.0
2017-Jul-16 15:00N 34°15' E 135°06'0 0.0
2017-Jul-16 14:30N 34°15' E 135°06'0 0.0
2017-Jul-16 13:57N 34°15' E 135°06'0 0.0
2017-Jul-16 13:30N 34°15' E 135°06'0 0.1
2017-Jul-16 13:00N 34°15' E 135°06'0 0.0
2017-Jul-16 12:30N 34°15' E 135°06'0 0.0
2017-Jul-16 12:00N 34°15' E 135°06'0 0.0
2017-Jul-16 11:27N 34°15' E 135°06'0 0.1
2017-Jul-16 10:57N 34°15' E 135°06'0 0.0
2017-Jul-16 10:30N 34°15' E 135°06'0 0.0
2017-Jul-16 10:00N 34°15' E 135°06'1 1.5
2017-Jul-16 09:30N 34°14' E 135°05'611.9
2017-Jul-16 09:00N 34°10' E 135°01'  
2017-Jul-11 08:42N 34°59' E 139°23'211.8
2017-Jul-11 08:30N 35°00' E 139°26'611.9
2017-Jul-11 08:00N 35°03' E 139°32'612.2
2017-Jul-11 07:30N 35°06' E 139°39'611.7
2017-Jul-11 07:00N 35°10' E 139°44'  
Track history (hours):
 
Tides and Currents Weather Stations Pressure Air Temp Water Temp Dewpoint Dewpoint Depression Visibility Wind Speed Wind Dir Waves Ship Positions

Wakayoshi Maru No.5

Last reported at 2017-Jul-21 06:42 UTC. Time now 2017-Jul-26 14:37 UTC.
Position N 34°02' E 134°59'.

Length 76 m; draft 4.7 m.

Type: Cargo ship. MMSI: 431500615.

Date/timePositionNaut miles runAvg speedWind from/ knotsBaromVisibWave heightAir tempDewpointWater temp
2017-Jul-21 06:42N 34°02' E 134°59'311.6
2017-Jul-21 06:29N 34°04' E 134°59'2511.7
2017-Jul-21 04:22N 34°27' E 135°10'512.8
2017-Jul-21 04:00N 34°30' E 135°14'612.4
2017-Jul-21 03:30N 34°34' E 135°20'5 9.1
2017-Jul-21 03:00N 34°35' E 135°25'1 0.4
2017-Jul-21 01:19N 34°35' E 135°26'0 0.0
2017-Jul-21 00:55N 34°35' E 135°26'0 0.0
2017-Jul-21 00:19N 34°35' E 135°26'0 0.0
2017-Jul-20 23:55N 34°35' E 135°26'0 0.0
2017-Jul-20 20:37N 34°35' E 135°26'0 0.1
2017-Jul-20 20:07N 34°35' E 135°26'0 2.1
2017-Jul-20 19:57N 34°35' E 135°25'0 0.0
2017-Jul-20 19:21N 34°35' E 135°25'0 0.0
2017-Jul-20 18:51N 34°35' E 135°25'0 0.0
2017-Jul-20 17:33N 34°35' E 135°25'0 0.1
2017-Jul-20 17:21N 34°35' E 135°25'0 0.0
2017-Jul-20 16:51N 34°35' E 135°25'0 0.0
2017-Jul-20 16:27N 34°35' E 135°25'0 0.1
2017-Jul-20 15:57N 34°35' E 135°25'0 0.0
2017-Jul-20 15:27N 34°35' E 135°25'0 0.1
2017-Jul-20 14:57N 34°35' E 135°25'8 8.1
2017-Jul-20 14:00N 34°32' E 135°17'612.5
2017-Jul-20 13:30N 34°27' E 135°12'1611.7
2017-Jul-20 12:10N 34°15' E 134°60'  
2017-Jul-17 08:03N 34°00' E 135°01'212.4
2017-Jul-17 07:52N 34°03' E 135°02'512.6
2017-Jul-17 07:30N 34°07' E 135°02'612.5
2017-Jul-17 07:00N 34°13' E 135°05'2 4.7
2017-Jul-17 06:30N 34°15' E 135°07'0 0.0
2017-Jul-17 05:55N 34°15' E 135°07'0 0.0
2017-Jul-17 05:28N 34°15' E 135°07'0 0.0
2017-Jul-17 04:58N 34°15' E 135°07'0 0.0
2017-Jul-17 04:28N 34°15' E 135°07'0 0.0
2017-Jul-17 03:58N 34°15' E 135°07'0 0.0
2017-Jul-17 03:28N 34°15' E 135°07'0 0.0
2017-Jul-17 02:58N 34°15' E 135°07'0 0.0
2017-Jul-17 02:30N 34°15' E 135°07'0 0.0
2017-Jul-17 02:00N 34°15' E 135°07'0 0.0
2017-Jul-17 01:30N 34°15' E 135°07'0 0.0
2017-Jul-17 01:00N 34°15' E 135°07'0 0.0
2017-Jul-17 00:30N 34°15' E 135°07'0 0.0
2017-Jul-17 00:00N 34°15' E 135°07'0 0.0
2017-Jul-16 23:30N 34°15' E 135°07'0 0.0
2017-Jul-16 23:00N 34°15' E 135°07'0 0.0
2017-Jul-16 22:30N 34°15' E 135°07'1 1.3
2017-Jul-16 22:00N 34°15' E 135°06'0 0.0
2017-Jul-16 21:30N 34°15' E 135°06'0 0.0
2017-Jul-16 21:00N 34°15' E 135°06'0 0.0
2017-Jul-16 20:30N 34°15' E 135°06'0 0.0
2017-Jul-16 20:00N 34°15' E 135°06'0 0.0
2017-Jul-16 19:30N 34°15' E 135°06'0 0.0
2017-Jul-16 19:00N 34°15' E 135°06'0 0.0
2017-Jul-16 18:27N 34°15' E 135°06'0 0.0
2017-Jul-16 17:57N 34°15' E 135°06'0 0.0
2017-Jul-16 17:12N 34°15' E 135°06'0 0.2
2017-Jul-16 16:57N 34°15' E 135°06'0 0.0
2017-Jul-16 16:30N 34°15' E 135°06'0 0.1
2017-Jul-16 15:57N 34°15' E 135°06'0 0.0
2017-Jul-16 15:27N 34°15' E 135°06'0 0.0
2017-Jul-16 15:00N 34°15' E 135°06'0 0.0
2017-Jul-16 14:30N 34°15' E 135°06'0 0.0
2017-Jul-16 13:57N 34°15' E 135°06'0 0.0
2017-Jul-16 13:30N 34°15' E 135°06'0 0.1
2017-Jul-16 13:00N 34°15' E 135°06'0 0.0
2017-Jul-16 12:30N 34°15' E 135°06'0 0.0
2017-Jul-16 12:00N 34°15' E 135°06'0 0.0
2017-Jul-16 11:27N 34°15' E 135°06'0 0.1
2017-Jul-16 10:57N 34°15' E 135°06'0 0.0
2017-Jul-16 10:30N 34°15' E 135°06'0 0.0
2017-Jul-16 10:00N 34°15' E 135°06'1 1.5
2017-Jul-16 09:30N 34°14' E 135°05'611.9
2017-Jul-16 09:00N 34°10' E 135°01'  
2017-Jul-11 08:42N 34°59' E 139°23'211.8
2017-Jul-11 08:30N 35°00' E 139°26'611.9
2017-Jul-11 08:00N 35°03' E 139°32'612.2
2017-Jul-11 07:30N 35°06' E 139°39'611.7
2017-Jul-11 07:00N 35°10' E 139°44'  

Dump ship's entire track history